createdAt,value
2018-04-22T00:01:34.483Z,2.70
2018-04-22T00:04:02.344Z,2.60
2018-04-22T00:06:30.176Z,2.43
2018-04-22T00:08:58.394Z,2.10
2018-04-22T00:11:26.240Z,2.40
2018-04-22T00:13:54.084Z,2.60
2018-04-22T00:16:22.047Z,2.30
2018-04-22T00:18:49.888Z,2.07
2018-04-22T00:21:17.725Z,2.40
2018-04-22T00:23:45.995Z,2.13
2018-04-22T00:26:13.832Z,2.10
2018-04-22T00:28:41.668Z,2.03
2018-04-22T00:31:09.832Z,2.53
2018-04-22T00:33:37.683Z,2.23
2018-04-22T00:36:05.540Z,2.80
2018-04-22T00:38:33.716Z,2.50
2018-04-22T00:41:01.564Z,2.27
2018-04-22T00:43:29.409Z,2.17
2018-04-22T00:45:57.812Z,2.10
2018-04-22T00:48:25.645Z,2.53
2018-04-22T00:50:53.266Z,2.17
2018-04-22T00:53:21.172Z,2.50
2018-04-22T00:55:49.010Z,2.60
2018-04-22T00:58:16.844Z,2.30
2018-04-22T01:00:44.973Z,2.50
2018-04-22T01:03:18.486Z,3.03
2018-04-22T01:05:46.712Z,2.73
2018-04-22T01:08:14.553Z,2.60
2018-04-22T01:10:42.396Z,2.43
2018-04-22T01:13:10.593Z,2.60
2018-04-22T01:15:38.425Z,2.67
2018-04-22T01:18:06.052Z,2.40
2018-04-22T01:20:34.184Z,3.10
2018-04-22T01:23:01.884Z,2.97
2018-04-22T01:25:29.724Z,2.70
2018-04-22T01:27:57.892Z,3.40
2018-04-22T01:30:25.753Z,2.77
2018-04-22T01:32:53.593Z,2.40
2018-04-22T01:35:21.816Z,1.93
2018-04-22T01:37:55.088Z,1.90
2018-04-22T01:40:23.288Z,1.80
2018-04-22T01:42:51.131Z,1.80
2018-04-22T01:45:18.981Z,1.60
2018-04-22T01:47:47.212Z,1.53
2018-04-22T01:50:15.157Z,1.70
2018-04-22T01:52:42.996Z,1.70
2018-04-22T01:55:11.189Z,1.90
2018-04-22T01:57:39.023Z,1.50
2018-04-22T02:00:06.857Z,1.47
2018-04-22T02:02:35.296Z,1.70
2018-04-22T02:05:05.070Z,1.83
2018-04-22T02:07:32.924Z,1.50
2018-04-22T02:10:00.841Z,1.50
2018-04-22T02:12:28.671Z,1.53
2018-04-22T02:14:56.396Z,1.30
2018-04-22T02:17:24.859Z,1.50
2018-04-22T02:19:52.688Z,1.27
2018-04-22T02:22:20.520Z,1.50
2018-04-22T02:24:48.684Z,1.40
2018-04-22T02:27:16.588Z,1.73
2018-04-22T02:29:44.593Z,1.60
2018-04-22T02:32:12.733Z,1.57
2018-04-22T02:34:40.576Z,1.40
2018-04-22T02:37:08.412Z,1.70
2018-04-22T02:39:36.672Z,1.20
2018-04-22T02:42:04.512Z,1.67
2018-04-22T02:44:32.349Z,1.57
2018-04-22T02:47:00.569Z,1.50
2018-04-22T02:49:28.409Z,1.30
2018-04-22T02:51:56.423Z,1.50
2018-04-22T02:54:24.649Z,1.40
2018-04-22T02:56:52.503Z,1.17
2018-04-22T02:59:20.344Z,1.50
2018-04-22T03:01:48.592Z,1.20
2018-04-22T03:04:16.437Z,1.20
2018-04-22T03:06:44.279Z,1.50
2018-04-22T03:09:12.612Z,1.90
2018-04-22T03:11:40.451Z,2.73
2018-04-22T03:14:08.294Z,2.40
2018-04-22T03:16:36.424Z,2.70
2018-04-22T03:19:04.306Z,2.87
2018-04-22T03:21:32.148Z,3.07
2018-04-22T03:24:00.373Z,3.17
2018-04-22T03:26:28.207Z,2.40
2018-04-22T03:28:56.045Z,2.90
2018-04-22T03:31:24.160Z,3.10
2018-04-22T03:33:51.920Z,3.07
2018-04-22T03:36:19.605Z,2.77
2018-04-22T03:38:47.756Z,2.10
2018-04-22T03:41:15.645Z,2.40
2018-04-22T03:43:43.480Z,3.00
2018-04-22T03:46:11.648Z,2.87
2018-04-22T03:48:39.488Z,2.50
2018-04-22T03:51:07.321Z,2.80
2018-04-22T03:53:35.535Z,2.97
2018-04-22T03:56:03.376Z,2.80
2018-04-22T03:58:31.236Z,2.47
2018-04-22T04:00:59.432Z,2.77
2018-04-22T04:03:27.268Z,3.00
2018-04-22T04:05:55.100Z,2.20
2018-04-22T04:08:23.339Z,2.90
2018-04-22T04:10:51.179Z,2.50
2018-04-22T04:13:19.009Z,2.80
2018-04-22T04:15:47.309Z,2.60
2018-04-22T04:18:29.777Z,2.57
2018-04-22T04:21:03.458Z,2.83
2018-04-22T04:23:36.918Z,2.80
2018-04-22T04:26:10.340Z,2.70
2018-04-22T04:28:38.178Z,2.70
2018-04-22T04:31:06.021Z,2.77
2018-04-22T04:33:34.175Z,2.50
2018-04-22T04:36:03.839Z,2.77
2018-04-22T04:38:31.875Z,2.47
2018-04-22T04:41:00.124Z,2.63
2018-04-22T04:43:33.629Z,2.53
2018-04-22T04:46:01.776Z,2.67
2018-04-22T04:48:29.628Z,2.37
2018-04-22T04:50:57.470Z,2.80
2018-04-22T04:53:25.692Z,2.20
2018-04-22T04:55:53.526Z,2.83
2018-04-22T04:58:21.360Z,2.60
2018-04-22T05:00:49.655Z,2.80
2018-04-22T05:03:17.492Z,2.40
2018-04-22T05:05:45.332Z,2.83
2018-04-22T05:08:13.448Z,2.63
2018-04-22T05:10:41.351Z,2.97
2018-04-22T05:13:09.356Z,2.83
2018-04-22T05:15:37.522Z,2.43
2018-04-22T05:18:05.389Z,2.97
2018-04-22T05:20:33.229Z,2.40
2018-04-22T05:23:07.041Z,2.33
2018-04-22T05:25:34.977Z,2.67
2018-04-22T05:28:02.816Z,2.63
2018-04-22T05:30:30.960Z,2.87
2018-04-22T05:32:58.790Z,2.07
2018-04-22T05:35:26.632Z,2.80
2018-04-22T05:37:54.865Z,2.50
2018-04-22T05:40:22.696Z,2.23
2018-04-22T05:42:50.540Z,2.67
2018-04-22T05:45:18.771Z,2.50
2018-04-22T05:47:46.676Z,2.70
2018-04-22T05:50:14.524Z,2.53
2018-04-22T05:52:48.313Z,2.57
2018-04-22T05:55:16.164Z,2.70
2018-04-22T05:57:44.001Z,2.60
2018-04-22T06:00:12.218Z,2.63
2018-04-22T06:02:40.048Z,2.50
2018-04-22T06:05:07.882Z,2.33
2018-04-22T06:07:36.116Z,2.73
2018-04-22T06:10:03.809Z,2.80
2018-04-22T06:12:31.641Z,2.37
2018-04-22T06:14:59.819Z,2.93
2018-04-22T06:17:27.660Z,3.10
2018-04-22T06:19:55.527Z,2.80
2018-04-22T06:22:23.756Z,2.80
2018-04-22T06:24:51.591Z,2.77
2018-04-22T06:27:19.429Z,2.70
2018-04-22T06:29:47.303Z,2.90
2018-04-22T06:32:15.140Z,3.20
2018-04-22T06:34:49.168Z,2.97
2018-04-22T06:37:17.004Z,2.73
2018-04-22T06:39:45.699Z,2.73
2018-04-22T06:42:13.844Z,3.40
2018-04-22T06:44:41.686Z,2.97
2018-04-22T06:47:09.533Z,3.23
2018-04-22T06:49:37.932Z,3.60
2018-04-22T06:52:05.776Z,3.10
2018-04-22T06:54:33.492Z,2.93
2018-04-22T06:57:01.648Z,3.27
2018-04-22T06:59:29.482Z,3.10
2018-04-22T07:01:57.324Z,3.40
2018-04-22T07:04:25.246Z,3.60
2018-04-22T07:06:53.092Z,3.83
2018-04-22T07:09:20.950Z,2.93
2018-04-22T07:11:49.280Z,3.20
2018-04-22T07:14:17.138Z,3.53
2018-04-22T07:16:45.921Z,3.90
2018-04-22T07:19:14.304Z,3.37
2018-04-22T07:21:42.160Z,3.37
2018-04-22T07:24:10.117Z,3.57
2018-04-22T07:26:38.514Z,3.60
2018-04-22T07:29:06.424Z,3.87
2018-04-22T07:31:34.268Z,4.07
2018-04-22T07:34:02.466Z,3.70
2018-04-22T07:36:30.323Z,4.53
2018-04-22T07:38:58.077Z,3.70
2018-04-22T07:41:26.242Z,4.27
2018-04-22T07:43:54.095Z,4.37
2018-04-22T07:46:21.941Z,3.93
2018-04-22T07:48:50.090Z,4.40
2018-04-22T07:51:17.952Z,4.00
2018-04-22T07:53:45.792Z,4.90
2018-04-22T07:56:14.037Z,4.30
2018-04-22T07:58:41.897Z,4.17
2018-04-22T08:01:09.747Z,4.60
2018-04-22T08:03:37.940Z,4.97
2018-04-22T08:06:05.804Z,5.13
2018-04-22T08:08:33.668Z,5.20
2018-04-22T08:11:01.835Z,5.00
2018-04-22T08:13:29.672Z,5.37
2018-04-22T08:15:57.564Z,5.20
2018-04-22T08:18:25.744Z,5.23
2018-04-22T08:20:53.601Z,5.87
2018-04-22T08:23:21.440Z,5.40
2018-04-22T08:25:49.655Z,5.87
2018-04-22T08:28:17.533Z,5.53
2018-04-22T08:30:46.360Z,5.30
2018-04-22T08:33:14.621Z,5.97
2018-04-22T08:35:42.490Z,5.50
2018-04-22T08:38:10.132Z,5.50
2018-04-22T08:40:38.403Z,5.60
2018-04-22T08:43:06.266Z,5.53
2018-04-22T08:45:34.337Z,5.50
2018-04-22T08:48:02.588Z,6.33
2018-04-22T08:50:30.426Z,6.10
2018-04-22T08:52:58.268Z,6.83
2018-04-22T08:55:26.614Z,6.43
2018-04-22T08:57:54.472Z,5.77
2018-04-22T09:00:22.553Z,4.83
2018-04-22T09:02:50.420Z,5.33
2018-04-22T09:05:18.272Z,5.87
2018-04-22T09:07:46.102Z,6.20
2018-04-22T09:10:14.327Z,6.10
2018-04-22T09:12:42.237Z,6.50
2018-04-22T09:15:15.821Z,6.37
2018-04-22T09:17:49.202Z,6.17
2018-04-22T09:20:17.193Z,7.13
2018-04-22T09:22:45.328Z,6.60
2018-04-22T09:25:13.248Z,7.00
2018-04-22T09:27:41.465Z,7.33
2018-04-22T09:30:09.328Z,7.87
2018-04-22T09:32:37.251Z,7.00
2018-04-22T09:35:05.472Z,7.30
2018-04-22T09:37:33.328Z,7.80
2018-04-22T09:40:01.236Z,7.83
2018-04-22T09:42:29.114Z,7.83
2018-04-22T09:45:02.534Z,7.50
2018-04-22T09:47:30.740Z,8.17
2018-04-22T09:49:58.653Z,7.53
2018-04-22T09:52:26.643Z,7.50
2018-04-22T09:54:54.876Z,7.60
2018-04-22T09:57:22.740Z,8.13
2018-04-22T09:59:50.602Z,8.20
2018-04-22T10:02:24.392Z,9.00
2018-04-22T10:04:52.022Z,8.70
2018-04-22T10:07:20.080Z,8.90
2018-04-22T10:09:48.244Z,9.03
2018-04-22T10:12:16.122Z,8.90
2018-04-22T10:14:44.115Z,9.03
2018-04-22T10:17:12.304Z,9.67
2018-04-22T10:19:40.143Z,9.80
2018-04-22T10:22:07.991Z,9.77
2018-04-22T10:24:35.892Z,10.23
2018-04-22T10:27:03.763Z,10.00
2018-04-22T10:29:31.620Z,9.67
2018-04-22T10:31:59.815Z,7.90
2018-04-22T10:34:27.697Z,6.73
2018-04-22T10:37:00.968Z,6.60
2018-04-22T10:39:28.851Z,6.10
2018-04-22T10:41:56.914Z,4.77
2018-04-22T10:44:24.988Z,5.20
2018-04-22T10:46:52.847Z,5.00
2018-04-22T10:49:20.700Z,4.83
2018-04-22T10:51:48.578Z,4.23
2018-04-22T10:54:16.460Z,4.23
2018-04-22T10:56:44.480Z,4.20
2018-04-22T10:59:12.372Z,3.90
2018-04-22T11:01:40.422Z,3.53
2018-04-22T11:04:08.380Z,3.30
2018-04-22T11:06:36.284Z,3.93
2018-04-22T11:09:03.677Z,3.93
2018-04-22T11:11:31.556Z,3.70
2018-04-22T11:13:59.422Z,3.70
2018-04-22T11:16:27.285Z,3.17
2018-04-22T11:18:55.128Z,3.47
2018-04-22T11:21:23.302Z,2.73
2018-04-22T11:23:51.159Z,3.23
2018-04-22T11:26:19.023Z,3.00
2018-04-22T11:28:47.222Z,3.00
2018-04-22T11:31:14.885Z,2.60
2018-04-22T11:33:42.738Z,2.60
2018-04-22T11:36:10.914Z,2.43
2018-04-22T11:38:38.793Z,2.30
2018-04-22T11:41:06.624Z,2.07
2018-04-22T11:43:34.798Z,1.90
2018-04-22T11:46:02.633Z,2.40
2018-04-22T11:48:30.479Z,2.30
2018-04-22T11:50:58.356Z,2.37
2018-04-22T11:53:26.215Z,2.23
2018-04-22T11:55:54.060Z,2.07
2018-04-22T11:58:22.310Z,2.00
2018-04-22T12:00:49.931Z,2.00
2018-04-22T12:03:17.792Z,1.97
2018-04-22T12:05:46.035Z,1.77
2018-04-22T12:08:13.869Z,1.77
2018-04-22T12:10:41.740Z,1.93
2018-04-22T12:13:09.912Z,1.73
2018-04-22T12:15:37.832Z,1.73
2018-04-22T12:18:05.690Z,1.93
2018-04-22T12:20:39.350Z,1.77
2018-04-22T12:23:07.420Z,2.07
2018-04-22T12:25:35.300Z,1.87
2018-04-22T12:28:03.558Z,1.80
2018-04-22T12:30:31.435Z,1.93
2018-04-22T12:32:59.372Z,1.50
2018-04-22T12:35:27.629Z,1.70
2018-04-22T12:37:55.503Z,1.70
2018-04-22T12:40:23.669Z,1.70
2018-04-22T12:42:51.552Z,1.80
2018-04-22T12:45:19.397Z,1.73
2018-04-22T12:47:47.240Z,1.67
2018-04-22T12:50:15.619Z,1.90
2018-04-22T12:52:43.620Z,1.43
2018-04-22T12:55:11.518Z,1.57
2018-04-22T12:57:39.708Z,1.90
2018-04-22T13:00:07.570Z,1.20
2018-04-22T13:02:35.431Z,1.37
2018-04-22T13:05:03.608Z,1.53
2018-04-22T13:07:31.476Z,1.30
2018-04-22T13:09:59.412Z,1.50
2018-04-22T13:12:27.629Z,1.30
2018-04-22T13:14:55.492Z,1.60
2018-04-22T13:17:23.333Z,1.30
2018-04-22T13:19:51.455Z,1.33
2018-04-22T13:22:19.332Z,1.43
2018-04-22T13:24:47.308Z,1.27
2018-04-22T13:27:15.543Z,1.60
2018-04-22T13:29:43.405Z,1.57
2018-04-22T13:32:11.460Z,1.60
2018-04-22T13:34:39.406Z,1.00
2018-04-22T13:37:07.299Z,1.13
2018-04-22T13:39:35.332Z,1.40
2018-04-22T13:42:03.480Z,1.50
2018-04-22T13:44:31.353Z,1.70
2018-04-22T13:46:59.206Z,1.40
2018-04-22T13:49:27.829Z,1.63
2018-04-22T13:51:55.676Z,1.20
2018-04-22T13:54:23.580Z,1.50
2018-04-22T13:56:51.988Z,1.87
2018-04-22T13:59:19.856Z,1.87
2018-04-22T14:01:47.736Z,1.80
2018-04-22T14:04:15.892Z,1.40
2018-04-22T14:06:44.498Z,2.33
2018-04-22T14:09:12.352Z,1.43
2018-04-22T14:11:40.500Z,1.67
2018-04-22T14:14:08.364Z,1.63
2018-04-22T14:16:35.972Z,1.60
2018-04-22T14:19:04.202Z,1.40
2018-04-22T14:21:32.036Z,1.67
2018-04-22T14:24:05.827Z,1.70
2018-04-22T14:26:39.370Z,1.67
2018-04-22T14:29:07.244Z,1.90
2018-04-22T14:31:35.076Z,1.90
2018-04-22T14:34:02.908Z,1.77
2018-04-22T14:36:31.145Z,1.80
2018-04-22T14:39:04.393Z,1.33
2018-04-22T14:41:32.569Z,1.67
2018-04-22T14:44:06.140Z,1.93
2018-04-22T14:46:34.425Z,1.77
2018-04-22T14:49:04.880Z,1.83
2018-04-22T14:51:32.737Z,2.00
2018-04-22T14:54:00.617Z,1.70
2018-04-22T14:56:28.471Z,1.60
2018-04-22T14:58:56.329Z,1.40
2018-04-22T15:01:24.569Z,1.70
2018-04-22T15:03:53.160Z,1.50
2018-04-22T15:06:27.207Z,1.20
2018-04-22T15:08:55.049Z,1.67
2018-04-22T15:11:22.912Z,1.70
2018-04-22T15:13:51.555Z,1.30
2018-04-22T15:16:19.400Z,1.50
2018-04-22T15:18:47.252Z,1.60
2018-04-22T15:21:15.396Z,1.43
2018-04-22T15:23:43.797Z,1.37
2018-04-22T15:26:11.816Z,1.37
2018-04-22T15:28:40.040Z,1.23
2018-04-22T15:31:07.923Z,1.57
2018-04-22T15:33:35.983Z,1.50
2018-04-22T15:36:04.199Z,1.80
2018-04-22T15:38:32.062Z,2.33
2018-04-22T15:40:59.737Z,1.70
2018-04-22T15:43:27.718Z,1.30
2018-04-22T15:45:55.410Z,1.87
2018-04-22T15:48:23.269Z,1.20
2018-04-22T15:50:51.454Z,1.30
2018-04-22T15:53:19.315Z,1.20
2018-04-22T15:55:53.092Z,1.27
2018-04-22T15:58:26.609Z,1.60
2018-04-22T16:00:54.863Z,1.50
2018-04-22T16:03:22.703Z,1.50
2018-04-22T16:05:50.643Z,1.27
2018-04-22T16:08:18.557Z,1.50
2018-04-22T16:10:46.604Z,1.27
2018-04-22T16:13:14.444Z,1.50
2018-04-22T16:15:42.320Z,1.43
2018-04-22T16:18:10.161Z,1.50
2018-04-22T16:20:38.049Z,1.30
2018-04-22T16:23:06.275Z,1.27
2018-04-22T16:25:34.128Z,1.10
2018-04-22T16:28:01.964Z,1.50
2018-04-22T16:30:30.417Z,1.30
2018-04-22T16:32:58.258Z,1.30
2018-04-22T16:35:26.143Z,1.07
2018-04-22T16:37:54.036Z,1.30
2018-04-22T16:40:21.896Z,1.27
2018-04-22T16:42:49.772Z,1.17
2018-04-22T16:45:18.004Z,1.30
2018-04-22T16:47:46.568Z,1.20
2018-04-22T16:50:14.405Z,1.03
2018-04-22T16:52:42.620Z,1.13
2018-04-22T16:55:10.530Z,1.43
2018-04-22T16:57:38.393Z,1.17
2018-04-22T17:00:06.686Z,1.03
2018-04-22T17:02:34.518Z,1.30
2018-04-22T17:05:07.993Z,1.07
2018-04-22T17:10:10.466Z,1.30
2018-04-22T17:12:38.397Z,1.27
2018-04-22T17:15:06.305Z,0.80
2018-04-22T17:17:34.194Z,0.90
2018-04-22T17:20:02.043Z,1.03
2018-04-22T17:22:29.903Z,1.30
2018-04-22T17:24:58.068Z,1.30
2018-04-22T17:27:25.912Z,0.80
2018-04-22T17:29:53.750Z,0.97
2018-04-22T17:32:21.892Z,1.00
2018-04-22T17:34:49.732Z,0.83
2018-04-22T17:37:17.581Z,1.30
2018-04-22T17:39:45.776Z,1.10
2018-04-22T17:42:13.624Z,1.20
2018-04-22T17:44:41.492Z,1.13
2018-04-22T17:47:09.704Z,1.37
2018-04-22T17:49:37.541Z,1.80
2018-04-22T17:52:05.388Z,1.90
2018-04-22T17:54:33.597Z,2.17
2018-04-22T17:57:01.442Z,2.17
2018-04-22T17:59:29.274Z,2.13
2018-04-22T18:01:57.505Z,2.50
2018-04-22T18:04:25.342Z,2.30
2018-04-22T18:06:53.191Z,2.87
2018-04-22T18:09:21.045Z,5.13
2018-04-22T18:11:48.792Z,2.87
2018-04-22T18:14:16.624Z,2.90
2018-04-22T18:16:44.257Z,3.83
2018-04-22T18:19:12.852Z,4.47
2018-04-22T18:21:40.700Z,3.63
2018-04-22T18:24:08.564Z,3.10
2018-04-22T18:26:36.417Z,2.90
2018-04-22T18:29:04.264Z,4.03
2018-04-22T18:31:32.415Z,3.93
2018-04-22T18:34:00.246Z,5.20
2018-04-22T18:36:28.095Z,5.73
2018-04-22T18:38:56.231Z,4.87
2018-04-22T18:41:24.076Z,4.30
2018-04-22T18:43:51.928Z,5.67
2018-04-22T18:46:20.148Z,5.13
2018-04-22T18:48:47.989Z,4.87
2018-04-22T18:51:15.828Z,3.87
2018-04-22T18:53:44.079Z,5.10
2018-04-22T18:56:11.942Z,5.03
2018-04-22T18:58:39.779Z,3.77
2018-04-22T19:01:07.664Z,4.40
2018-04-22T19:03:35.524Z,4.57
2018-04-22T19:06:03.187Z,3.90
2018-04-22T19:08:31.055Z,4.20
2018-04-22T19:10:58.906Z,4.27
2018-04-22T19:13:26.588Z,3.70
2018-04-22T19:15:54.450Z,5.63
2018-04-22T19:18:22.309Z,4.07
2018-04-22T19:20:50.173Z,4.23
2018-04-22T19:23:18.045Z,3.47
2018-04-22T19:25:45.814Z,4.20
2018-04-22T19:28:13.652Z,5.90
2018-04-22T19:30:41.526Z,5.47
2018-04-22T19:33:09.369Z,5.47
2018-04-22T19:35:37.211Z,6.00
2018-04-22T19:38:05.335Z,5.70
2018-04-22T19:40:33.174Z,4.27
2018-04-22T19:43:01.110Z,4.80
2018-04-22T19:45:34.543Z,4.87
2018-04-22T19:48:07.935Z,4.70
2018-04-22T19:50:36.111Z,3.73
2018-04-22T19:53:03.823Z,5.13
2018-04-22T19:55:31.681Z,4.60
2018-04-22T19:57:59.825Z,3.83
2018-04-22T20:00:27.680Z,3.80
2018-04-22T20:02:55.536Z,4.77
2018-04-22T20:05:23.824Z,4.00
2018-04-22T20:07:51.672Z,3.53
2018-04-22T20:10:19.915Z,4.37
2018-04-22T20:12:48.236Z,3.93
2018-04-22T20:15:16.077Z,3.77
2018-04-22T20:17:43.924Z,3.93
2018-04-22T20:20:11.828Z,3.87
2018-04-22T20:22:39.667Z,3.70
2018-04-22T20:25:07.566Z,4.03
2018-04-22T20:27:35.607Z,3.47
2018-04-22T20:30:03.444Z,3.20
2018-04-22T20:32:31.303Z,3.47
2018-04-22T20:34:59.196Z,3.30
2018-04-22T20:37:27.037Z,4.10
2018-04-22T20:39:54.876Z,3.20
2018-04-22T20:42:22.760Z,4.73
2018-04-22T20:44:50.654Z,3.20
2018-04-22T20:47:18.497Z,4.40
2018-04-22T20:49:47.377Z,5.17
2018-04-22T20:52:15.212Z,3.70
2018-04-22T20:54:43.057Z,4.60
2018-04-22T20:57:11.582Z,4.23
2018-04-22T20:59:39.425Z,3.73
2018-04-22T21:02:07.260Z,3.43
2018-04-22T21:04:35.485Z,4.17
2018-04-22T21:07:03.345Z,3.40
2018-04-22T21:09:31.193Z,4.30
2018-04-22T21:11:59.396Z,2.90
2018-04-22T21:14:27.236Z,4.00
2018-04-22T21:16:55.090Z,3.17
2018-04-22T21:19:23.395Z,3.30
2018-04-22T21:21:51.242Z,3.43
2018-04-22T21:24:19.076Z,3.43
2018-04-22T21:26:47.320Z,3.47
2018-04-22T21:29:15.164Z,3.93
2018-04-22T21:31:43.016Z,3.80
2018-04-22T21:34:10.876Z,3.13
2018-04-22T21:36:38.536Z,3.40
2018-04-22T21:39:06.382Z,3.13
2018-04-22T21:41:34.617Z,2.73
2018-04-22T21:44:02.461Z,3.00
2018-04-22T21:46:30.296Z,3.40
2018-04-22T21:48:58.578Z,3.37
2018-04-22T21:51:26.438Z,3.90
2018-04-22T21:53:54.284Z,2.90
2018-04-22T21:56:22.529Z,3.27
2018-04-22T21:58:50.130Z,5.70
2018-04-22T22:01:17.880Z,4.60
2018-04-22T22:03:46.121Z,4.33
2018-04-22T22:06:14.052Z,4.17
2018-04-22T22:08:41.892Z,3.13
2018-04-22T22:11:10.236Z,3.63
2018-04-22T22:13:38.083Z,3.47
2018-04-22T22:16:05.917Z,3.53
2018-04-22T22:18:34.188Z,3.53
2018-04-22T22:21:07.629Z,2.87
2018-04-22T22:23:35.775Z,3.57
2018-04-22T22:26:03.644Z,2.53
2018-04-22T22:28:31.482Z,2.70
2018-04-22T22:30:59.647Z,4.83
2018-04-22T22:33:27.485Z,2.53
2018-04-22T22:35:55.323Z,3.10
2018-04-22T22:38:23.587Z,3.43
2018-04-22T22:40:51.429Z,3.30
2018-04-22T22:43:19.260Z,2.43
2018-04-22T22:45:47.321Z,5.40
2018-04-22T22:48:15.154Z,3.80
2018-04-22T22:50:44.096Z,3.07
2018-04-22T22:53:12.303Z,3.17
2018-04-22T22:55:40.332Z,3.87
2018-04-22T22:58:08.181Z,3.17
2018-04-22T23:00:36.368Z,3.13
2018-04-22T23:03:04.218Z,2.67
2018-04-22T23:05:32.053Z,2.77
2018-04-22T23:08:00.272Z,3.30
2018-04-22T23:10:27.955Z,2.70
2018-04-22T23:12:55.825Z,3.27
2018-04-22T23:15:23.972Z,2.97
2018-04-22T23:17:51.812Z,4.27
2018-04-22T23:20:19.658Z,2.97
2018-04-22T23:22:47.800Z,2.73
2018-04-22T23:25:15.636Z,4.00
2018-04-22T23:27:43.470Z,3.00
2018-04-22T23:30:11.851Z,3.50
2018-04-22T23:32:39.687Z,2.93
2018-04-22T23:35:07.523Z,2.57
2018-04-22T23:37:35.815Z,2.37
2018-04-22T23:40:03.700Z,3.07
2018-04-22T23:42:31.541Z,3.93
2018-04-22T23:44:59.405Z,3.53
2018-04-22T23:47:27.251Z,2.57
2018-04-22T23:49:55.108Z,3.80
2018-04-22T23:52:23.206Z,3.30
2018-04-22T23:54:51.056Z,2.73
2018-04-22T23:57:18.904Z,3.63
2018-04-22T23:59:47.042Z,2.40
